createdAt,value
2018-04-26T00:01:57.165Z,100969.93
2018-04-26T00:04:25.855Z,100962.83
2018-04-26T00:06:54.073Z,100976.41
2018-04-26T00:09:22.273Z,100978.75
2018-04-26T00:11:50.706Z,100966.64
2018-04-26T00:14:18.982Z,100969.02
2018-04-26T00:16:47.231Z,100964.33
2018-04-26T00:19:15.847Z,100972.98
2018-04-26T00:21:44.053Z,100972.93
2018-04-26T00:24:12.455Z,100974.08
2018-04-26T00:26:41.115Z,100980.72
2018-04-26T00:29:09.313Z,100970.37
2018-04-26T00:31:37.619Z,100980.55
2018-04-26T00:34:06.093Z,100978.34
2018-04-26T00:36:34.341Z,100980.18
2018-04-26T00:39:02.741Z,100975.11
2018-04-26T00:41:31.235Z,100975.02
2018-04-26T00:43:59.458Z,100971.70
2018-04-26T00:46:27.877Z,100971.16
2018-04-26T00:48:56.479Z,100969.84
2018-04-26T00:51:36.603Z,100969.57
2018-04-26T00:54:04.828Z,100981.33
2018-04-26T00:56:33.030Z,100972.25
2018-04-26T00:59:01.691Z,100972.73
2018-04-26T01:01:29.891Z,100970.79
2018-04-26T01:03:58.214Z,100974.47
2018-04-26T01:06:26.924Z,100977.94
2018-04-26T01:08:55.130Z,100981.19
2018-04-26T01:11:23.445Z,100981.19
2018-04-26T01:13:52.424Z,100974.03
2018-04-26T01:16:20.659Z,100977.52
2018-04-26T01:18:48.841Z,100978.73
2018-04-26T01:21:17.579Z,100977.00
2018-04-26T01:23:45.778Z,100982.30
2018-04-26T01:26:13.988Z,100973.67
2018-04-26T01:28:42.759Z,100977.26
2018-04-26T01:31:10.965Z,100973.66
2018-04-26T01:33:39.175Z,100974.47
2018-04-26T01:36:07.857Z,100968.99
2018-04-26T01:38:36.077Z,100969.49
2018-04-26T01:41:04.301Z,100957.07
2018-04-26T01:43:32.971Z,100964.67
2018-04-26T01:46:01.176Z,100970.27
2018-04-26T01:48:30.248Z,100967.55
2018-04-26T01:50:58.522Z,100970.86
2018-04-26T01:53:27.370Z,100965.62
2018-04-26T01:55:55.590Z,100961.65
2018-04-26T01:58:23.790Z,100963.97
2018-04-26T02:00:52.503Z,100955.10
2018-04-26T02:03:20.694Z,100959.69
2018-04-26T02:05:48.931Z,100964.19
2018-04-26T02:08:17.638Z,100962.45
2018-04-26T02:10:45.835Z,100962.50
2018-04-26T02:13:14.070Z,100969.59
2018-04-26T02:15:42.834Z,100963.83
2018-04-26T02:18:11.037Z,100963.44
2018-04-26T02:20:39.238Z,100960.38
2018-04-26T02:23:07.856Z,100970.78
2018-04-26T02:25:36.202Z,100967.72
2018-04-26T02:28:05.025Z,100964.31
2018-04-26T02:30:33.739Z,100965.30
2018-04-26T02:33:01.975Z,100969.09
2018-04-26T02:35:30.235Z,100969.20
2018-04-26T02:37:58.884Z,100978.12
2018-04-26T02:40:27.141Z,100980.25
2018-04-26T02:42:55.368Z,100979.08
2018-04-26T02:45:23.991Z,100978.78
2018-04-26T02:47:52.196Z,100973.92
2018-04-26T02:50:20.627Z,100966.55
2018-04-26T02:52:49.145Z,100968.81
2018-04-26T02:55:17.986Z,100966.82
2018-04-26T02:57:46.196Z,100979.43
2018-04-26T03:00:14.835Z,100967.72
2018-04-26T03:02:43.066Z,100971.77
2018-04-26T03:05:11.283Z,100972.28
2018-04-26T03:07:39.877Z,100980.33
2018-04-26T03:10:08.124Z,100971.28
2018-04-26T03:12:36.325Z,100965.70
2018-04-26T03:15:05.101Z,100974.16
2018-04-26T03:17:33.344Z,100977.34
2018-04-26T03:20:01.980Z,100966.61
2018-04-26T03:22:40.624Z,100975.84
2018-04-26T03:25:09.338Z,100975.82
2018-04-26T03:27:37.525Z,100968.55
2018-04-26T03:30:06.480Z,100974.84
2018-04-26T03:32:35.062Z,100980.94
2018-04-26T03:35:03.924Z,100984.84
2018-04-26T03:37:32.165Z,100986.66
2018-04-26T03:40:00.991Z,100988.73
2018-04-26T03:42:29.631Z,100989.52
2018-04-26T03:44:57.850Z,100987.55
2018-04-26T03:47:26.074Z,100988.16
2018-04-26T03:49:54.713Z,100987.89
2018-04-26T03:52:22.909Z,100997.62
2018-04-26T03:54:51.164Z,100990.98
2018-04-26T03:57:19.901Z,100993.91
2018-04-26T04:00:00.567Z,101007.27
2018-04-26T04:02:41.617Z,100994.49
2018-04-26T04:08:13.118Z,100994.19
2018-04-26T04:10:41.503Z,101001.64
2018-04-26T04:13:10.264Z,101004.78
2018-04-26T04:15:38.446Z,101002.91
2018-04-26T04:18:06.713Z,101002.75
2018-04-26T04:20:35.512Z,101005.89
2018-04-26T04:23:03.750Z,101008.22
2018-04-26T04:25:32.160Z,101013.93
2018-04-26T04:28:01.012Z,101017.28
2018-04-26T04:30:29.164Z,101030.21
2018-04-26T04:32:57.352Z,101023.53
2018-04-26T04:35:25.650Z,101026.23
2018-04-26T04:37:53.820Z,101040.08
2018-04-26T04:40:23.159Z,101034.34
2018-04-26T04:42:51.369Z,101043.64
2018-04-26T04:45:19.543Z,101048.62
2018-04-26T04:47:47.780Z,101046.25
2018-04-26T04:50:16.640Z,101042.28
2018-04-26T04:52:44.847Z,101050.17
2018-04-26T04:55:13.601Z,101051.13
2018-04-26T04:57:42.735Z,101053.51
2018-04-26T05:00:10.948Z,101056.52
2018-04-26T05:02:39.159Z,101060.47
2018-04-26T05:05:07.740Z,101070.14
2018-04-26T05:07:35.971Z,101066.27
2018-04-26T05:10:04.199Z,101068.07
2018-04-26T05:12:55.234Z,101063.63
2018-04-26T05:15:29.301Z,101061.08
2018-04-26T05:17:57.987Z,101065.06
2018-04-26T05:20:26.177Z,101066.06
2018-04-26T05:22:54.517Z,101069.28
2018-04-26T05:25:23.155Z,101071.08
2018-04-26T05:27:51.353Z,101073.42
2018-04-26T05:30:19.709Z,101085.03
2018-04-26T05:32:48.469Z,101085.84
2018-04-26T05:35:16.925Z,101084.84
2018-04-26T05:37:45.139Z,101085.91
2018-04-26T05:40:13.886Z,101080.45
2018-04-26T05:42:42.110Z,101092.90
2018-04-26T05:45:10.300Z,101089.06
2018-04-26T05:47:39.027Z,101086.28
2018-04-26T05:50:07.253Z,101096.58
2018-04-26T05:52:35.474Z,101100.61
2018-04-26T05:55:04.239Z,101100.03
2018-04-26T05:57:32.483Z,101103.70
2018-04-26T06:00:00.715Z,101109.80
2018-04-26T06:02:29.343Z,101106.94
2018-04-26T06:04:57.585Z,101112.41
2018-04-26T06:07:25.824Z,101111.27
2018-04-26T06:09:54.668Z,101116.59
2018-04-26T06:12:23.679Z,101122.33
2018-04-26T06:14:51.929Z,101123.69
2018-04-26T06:17:20.740Z,101124.05
2018-04-26T06:19:49.695Z,101119.52
2018-04-26T06:22:18.727Z,101131.05
2018-04-26T06:24:46.944Z,101130.13
2018-04-26T06:27:15.794Z,101138.48
2018-04-26T06:29:44.613Z,101142.92
2018-04-26T06:32:12.855Z,101131.13
2018-04-26T06:34:41.057Z,101145.57
2018-04-26T06:37:09.777Z,101144.88
2018-04-26T06:39:38.034Z,101147.52
2018-04-26T06:42:06.272Z,101149.92
2018-04-26T06:44:34.911Z,101159.28
2018-04-26T06:47:03.167Z,101153.40
2018-04-26T06:49:31.389Z,101160.69
2018-04-26T06:52:00.153Z,101173.59
2018-04-26T06:54:28.399Z,101168.66
2018-04-26T06:56:56.576Z,101172.78
2018-04-26T06:59:25.292Z,101179.52
2018-04-26T07:01:53.643Z,101178.12
2018-04-26T07:04:21.861Z,101177.05
2018-04-26T07:06:50.715Z,101185.80
2018-04-26T07:09:19.508Z,101182.38
2018-04-26T07:11:47.731Z,101187.84
2018-04-26T07:14:16.515Z,101184.69
2018-04-26T07:16:45.087Z,101190.02
2018-04-26T07:19:13.354Z,101192.38
2018-04-26T07:21:41.654Z,101190.69
2018-04-26T07:24:10.199Z,101196.74
2018-04-26T07:26:38.443Z,101192.92
2018-04-26T07:29:06.713Z,101204.91
2018-04-26T07:31:35.232Z,101203.23
2018-04-26T07:34:03.502Z,101203.45
2018-04-26T07:36:31.779Z,101195.34
2018-04-26T07:39:00.523Z,101203.28
2018-04-26T07:41:28.793Z,101201.97
2018-04-26T07:43:57.019Z,101206.45
2018-04-26T07:46:25.608Z,101201.53
2018-04-26T07:48:53.860Z,101208.20
2018-04-26T07:51:22.085Z,101210.51
2018-04-26T07:53:50.793Z,101207.36
2018-04-26T07:56:19.016Z,101211.84
2018-04-26T07:58:47.320Z,101216.50
2018-04-26T08:01:15.881Z,101216.67
2018-04-26T08:03:44.116Z,101206.91
2018-04-26T08:06:12.369Z,101221.55
2018-04-26T08:08:40.995Z,101203.98
2018-04-26T08:11:09.342Z,101214.47
2018-04-26T08:13:37.633Z,101218.82
2018-04-26T08:16:06.195Z,101208.17
2018-04-26T08:18:34.444Z,101208.80
2018-04-26T08:21:02.777Z,101208.92
2018-04-26T08:23:31.405Z,101223.34
2018-04-26T08:25:59.635Z,101212.75
2018-04-26T08:28:28.013Z,101218.39
2018-04-26T08:30:56.538Z,101215.20
2018-04-26T08:33:24.839Z,101229.86
2018-04-26T08:35:53.192Z,101231.26
2018-04-26T08:38:21.733Z,101229.25
2018-04-26T08:40:49.958Z,101231.97
2018-04-26T08:43:18.313Z,101234.57
2018-04-26T08:45:46.871Z,101258.70
2018-04-26T08:48:15.074Z,101262.92
2018-04-26T08:50:43.453Z,101270.10
2018-04-26T08:53:12.123Z,101268.16
2018-04-26T08:55:40.332Z,101259.38
2018-04-26T08:58:08.536Z,101262.19
2018-04-26T09:00:37.193Z,101262.73
2018-04-26T09:03:05.431Z,101255.44
2018-04-26T09:05:33.702Z,101256.24
2018-04-26T09:08:02.388Z,101260.77
2018-04-26T09:10:30.671Z,101261.17
2018-04-26T09:12:58.880Z,101263.17
2018-04-26T09:15:27.542Z,101263.34
2018-04-26T09:17:55.770Z,101266.19
2018-04-26T09:20:24.179Z,101269.92
2018-04-26T09:22:52.809Z,101259.07
2018-04-26T09:25:21.030Z,101280.34
2018-04-26T09:27:49.419Z,101266.56
2018-04-26T09:30:17.911Z,101279.02
2018-04-26T09:32:46.117Z,101282.94
2018-04-26T09:35:14.513Z,101284.05
2018-04-26T09:37:43.140Z,101281.84
2018-04-26T09:40:11.380Z,101294.21
2018-04-26T09:42:39.752Z,101289.77
2018-04-26T09:45:08.377Z,101287.89
2018-04-26T09:47:36.616Z,101279.88
2018-04-26T09:50:04.861Z,101277.56
2018-04-26T09:52:33.499Z,101284.95
2018-04-26T09:55:01.718Z,101288.94
2018-04-26T09:57:30.091Z,101280.66
2018-04-26T09:59:58.668Z,101284.23
2018-04-26T10:02:26.895Z,101275.56
2018-04-26T10:04:55.273Z,101271.20
2018-04-26T10:07:23.842Z,101279.23
2018-04-26T10:09:52.113Z,101279.14
2018-04-26T10:12:20.363Z,101282.83
2018-04-26T10:14:48.967Z,101280.14
2018-04-26T10:17:17.185Z,101280.66
2018-04-26T10:19:45.515Z,101278.52
2018-04-26T10:22:14.169Z,101292.96
2018-04-26T10:24:42.376Z,101288.34
2018-04-26T10:27:11.800Z,101288.09
2018-04-26T10:29:40.085Z,101287.25
2018-04-26T10:32:08.836Z,101284.56
2018-04-26T10:34:37.048Z,101280.39
2018-04-26T10:37:05.270Z,101285.75
2018-04-26T10:39:33.963Z,101297.31
2018-04-26T10:42:02.176Z,101296.31
2018-04-26T10:44:30.403Z,101304.70
2018-04-26T10:46:59.588Z,101301.05
2018-04-26T10:49:27.826Z,101302.66
2018-04-26T10:51:56.399Z,101306.28
2018-04-26T10:54:24.878Z,101302.63
2018-04-26T10:56:53.073Z,101305.91
2018-04-26T10:59:21.502Z,101308.43
2018-04-26T11:01:50.047Z,101301.84
2018-04-26T11:04:18.277Z,101298.27
2018-04-26T11:06:46.575Z,101294.44
2018-04-26T11:09:15.224Z,101295.05
2018-04-26T11:11:43.521Z,101290.97
2018-04-26T11:14:11.721Z,101287.02
2018-04-26T11:16:40.372Z,101293.41
2018-04-26T11:19:08.595Z,101290.52
2018-04-26T11:21:37.053Z,101290.00
2018-04-26T11:24:05.595Z,101293.66
2018-04-26T11:26:33.824Z,101295.14
2018-04-26T11:29:02.207Z,101288.28
2018-04-26T11:31:31.357Z,101289.53
2018-04-26T11:36:34.140Z,101295.13
2018-04-26T11:39:02.308Z,101283.22
2018-04-26T11:41:30.962Z,101288.72
2018-04-26T11:43:59.189Z,101278.28
2018-04-26T11:46:27.607Z,101282.66
2018-04-26T11:48:56.241Z,101286.97
2018-04-26T11:51:24.467Z,101273.59
2018-04-26T11:53:52.740Z,101268.23
2018-04-26T11:56:21.476Z,101284.13
2018-04-26T11:58:49.625Z,101283.41
2018-04-26T12:01:17.979Z,101279.24
2018-04-26T12:03:46.601Z,101282.53
2018-04-26T12:06:14.804Z,101284.56
2018-04-26T12:08:43.273Z,101288.79
2018-04-26T12:11:11.751Z,101287.20
2018-04-26T12:13:39.963Z,101281.78
2018-04-26T12:16:08.455Z,101286.09
2018-04-26T12:18:36.964Z,101288.63
2018-04-26T12:21:05.261Z,101286.81
2018-04-26T12:23:33.530Z,101283.89
2018-04-26T12:26:02.229Z,101285.68
2018-04-26T12:28:30.441Z,101275.41
2018-04-26T12:30:58.714Z,101273.35
2018-04-26T12:33:27.376Z,101271.33
2018-04-26T12:35:55.579Z,101275.55
2018-04-26T12:38:24.009Z,101270.19
2018-04-26T12:40:52.548Z,101274.53
2018-04-26T12:43:20.802Z,101275.22
2018-04-26T12:45:49.024Z,101275.62
2018-04-26T12:48:17.976Z,101271.14
2018-04-26T12:50:46.192Z,101282.73
2018-04-26T12:53:14.392Z,101270.05
2018-04-26T12:55:42.851Z,101278.80
2018-04-26T12:58:11.130Z,101262.98
2018-04-26T13:00:39.359Z,101272.20
2018-04-26T13:03:07.981Z,101274.74
2018-04-26T13:05:36.218Z,101289.78
2018-04-26T13:08:04.499Z,101281.45
2018-04-26T13:10:33.113Z,101285.88
2018-04-26T13:13:01.354Z,101281.20
2018-04-26T13:15:30.417Z,101280.19
2018-04-26T13:17:58.925Z,101284.98
2018-04-26T13:20:27.110Z,101280.14
2018-04-26T13:22:55.324Z,101287.02
2018-04-26T13:25:23.786Z,101297.61
2018-04-26T13:27:52.023Z,101319.77
2018-04-26T13:30:20.412Z,101329.03
2018-04-26T13:32:49.032Z,101361.12
2018-04-26T13:35:17.239Z,101341.96
2018-04-26T13:37:45.531Z,101332.30
2018-04-26T13:40:14.088Z,101331.13
2018-04-26T13:42:42.297Z,101318.03
2018-04-26T13:45:10.693Z,101313.81
2018-04-26T13:47:39.282Z,101317.02
2018-04-26T13:50:07.497Z,101321.73
2018-04-26T13:52:35.728Z,101313.38
2018-04-26T13:55:04.382Z,101310.93
2018-04-26T13:57:32.591Z,101308.35
2018-04-26T14:00:00.976Z,101315.51
2018-04-26T14:02:29.127Z,101295.06
2018-04-26T14:04:57.295Z,101299.36
2018-04-26T14:07:25.507Z,101292.16
2018-04-26T14:09:53.722Z,101289.46
2018-04-26T14:12:21.906Z,101289.39
2018-04-26T14:14:50.337Z,101283.66
2018-04-26T14:17:18.551Z,101281.78
2018-04-26T14:19:46.766Z,101287.16
2018-04-26T14:22:15.223Z,101282.68
2018-04-26T14:24:43.445Z,101280.03
2018-04-26T14:27:11.683Z,101282.02
2018-04-26T14:29:40.340Z,101277.69
2018-04-26T14:32:08.460Z,101276.98
2018-04-26T14:34:36.830Z,101271.80
2018-04-26T14:37:05.351Z,101279.92
2018-04-26T14:39:33.541Z,101284.63
2018-04-26T14:42:01.979Z,101274.03
2018-04-26T14:44:30.506Z,101283.35
2018-04-26T14:46:58.740Z,101270.29
2018-04-26T14:49:27.168Z,101282.48
2018-04-26T14:51:55.808Z,101268.17
2018-04-26T14:54:24.113Z,101269.56
2018-04-26T14:56:52.336Z,101266.00
2018-04-26T14:59:20.958Z,101263.63
2018-04-26T15:01:49.170Z,101268.19
2018-04-26T15:04:17.551Z,101274.25
2018-04-26T15:06:46.160Z,101270.21
2018-04-26T15:09:14.391Z,101270.19
2018-04-26T15:11:42.828Z,101270.45
2018-04-26T15:14:11.396Z,101258.16
2018-04-26T15:16:39.592Z,101258.91
2018-04-26T15:19:07.993Z,101261.61
2018-04-26T15:21:36.557Z,101254.33
2018-04-26T15:24:05.058Z,101257.73
2018-04-26T15:26:33.250Z,101255.66
2018-04-26T15:29:01.765Z,101250.80
2018-04-26T15:31:30.041Z,101261.58
2018-04-26T15:33:58.434Z,101264.69
2018-04-26T15:36:27.077Z,101267.11
2018-04-26T15:38:55.339Z,101261.27
2018-04-26T15:41:23.513Z,101259.67
2018-04-26T15:43:52.154Z,101274.98
2018-04-26T15:46:20.358Z,101269.28
2018-04-26T15:48:48.889Z,101265.91
2018-04-26T15:51:17.552Z,101267.23
2018-04-26T15:53:57.610Z,101271.47
2018-04-26T15:56:54.678Z,101268.13
2018-04-26T15:59:34.745Z,101270.80
2018-04-26T16:05:39.012Z,101258.48
2018-04-26T16:08:25.241Z,101258.27
2018-04-26T16:11:11.716Z,101256.94
2018-04-26T16:13:57.686Z,101255.72
2018-04-26T16:16:43.383Z,101260.28
2018-04-26T16:19:33.007Z,101258.10
2018-04-26T16:22:19.205Z,101255.47
2018-04-26T16:24:59.217Z,101259.66
2018-04-26T16:27:44.235Z,101248.20
2018-04-26T16:30:24.219Z,101243.75
2018-04-26T16:33:05.307Z,101250.67
2018-04-26T16:35:45.212Z,101246.23
2018-04-26T16:38:25.224Z,101248.05
2018-04-26T16:40:53.472Z,101252.22
2018-04-26T16:43:21.729Z,101246.16
2018-04-26T16:45:50.418Z,101244.30
2018-04-26T16:48:18.659Z,101246.55
2018-04-26T16:50:46.886Z,101261.44
2018-04-26T16:53:15.738Z,101276.69
2018-04-26T16:55:43.958Z,101284.75
2018-04-26T16:58:12.195Z,101278.75
2018-04-26T17:00:40.701Z,101268.91
2018-04-26T17:03:08.925Z,101263.53
2018-04-26T17:05:38.457Z,101236.66
2018-04-26T17:08:07.078Z,101244.72
2018-04-26T17:10:35.624Z,101245.53
2018-04-26T17:13:03.844Z,101250.13
2018-04-26T17:15:32.107Z,101249.84
2018-04-26T17:18:00.754Z,101255.61
2018-04-26T17:20:30.182Z,101256.73
2018-04-26T17:22:58.398Z,101259.62
2018-04-26T17:25:26.583Z,101261.98
2018-04-26T17:27:55.325Z,101265.84
2018-04-26T17:30:23.511Z,101275.52
2018-04-26T17:32:51.736Z,101283.47
2018-04-26T17:35:20.583Z,101293.03
2018-04-26T17:37:48.790Z,101293.19
2018-04-26T17:40:17.091Z,101294.77
2018-04-26T17:42:45.297Z,101300.87
2018-04-26T17:45:13.599Z,101309.60
2018-04-26T17:47:42.551Z,101305.72
2018-04-26T17:50:11.538Z,101299.77
2018-04-26T17:52:39.870Z,101290.28
2018-04-26T17:55:08.467Z,101298.44
2018-04-26T17:57:36.765Z,101301.26
2018-04-26T18:00:05.229Z,101300.08
2018-04-26T18:02:34.293Z,101298.98
2018-04-26T18:05:03.380Z,101299.27
2018-04-26T18:07:31.558Z,101299.33
2018-04-26T18:09:59.808Z,101295.58
2018-04-26T18:12:28.518Z,101303.26
2018-04-26T18:14:56.727Z,101299.72
2018-04-26T18:17:25.551Z,101300.60
2018-04-26T18:20:01.040Z,101299.83
2018-04-26T18:22:22.372Z,101304.08
2018-04-26T18:24:50.646Z,101295.94
2018-04-26T18:27:19.266Z,101297.98
2018-04-26T18:29:47.464Z,101295.09
2018-04-26T18:32:16.178Z,101295.48
2018-04-26T18:34:45.086Z,101300.32
2018-04-26T18:37:14.063Z,101310.05
2018-04-26T18:39:42.258Z,101314.45
2018-04-26T18:42:11.050Z,101317.75
2018-04-26T18:44:39.760Z,101322.11
2018-04-26T18:47:08.008Z,101315.92
2018-04-26T18:49:36.260Z,101320.40
2018-04-26T18:52:04.940Z,101324.38
2018-04-26T18:54:33.181Z,101317.77
2018-04-26T18:57:01.555Z,101317.17
2018-04-26T18:59:30.039Z,101324.59
2018-04-26T19:01:58.287Z,101325.48
2018-04-26T19:04:26.640Z,101328.15
2018-04-26T19:06:55.255Z,101330.62
2018-04-26T19:09:23.548Z,101332.55
2018-04-26T19:11:51.965Z,101335.70
2018-04-26T19:14:20.797Z,101339.68
2018-04-26T19:16:49.044Z,101340.66
2018-04-26T19:19:17.387Z,101341.08
2018-04-26T19:21:46.047Z,101347.48
2018-04-26T19:24:14.266Z,101339.03
2018-04-26T19:26:42.542Z,101340.79
2018-04-26T19:29:11.199Z,101343.27
2018-04-26T19:31:39.390Z,101341.17
2018-04-26T19:34:07.588Z,101343.51
2018-04-26T19:36:36.266Z,101347.84
2018-04-26T19:39:04.489Z,101336.67
2018-04-26T19:41:32.772Z,101336.74
2018-04-26T19:44:01.565Z,101342.47
2018-04-26T19:46:29.807Z,101344.70
2018-04-26T19:48:58.018Z,101344.56
2018-04-26T19:51:26.451Z,101350.78
2018-04-26T19:53:54.638Z,101343.45
2018-04-26T19:56:22.968Z,101340.58
2018-04-26T19:58:51.739Z,101343.08
2018-04-26T20:01:20.465Z,101337.61
2018-04-26T20:03:48.970Z,101341.86
2018-04-26T20:06:17.513Z,101339.00
2018-04-26T20:08:45.782Z,101338.80
2018-04-26T20:11:13.977Z,101334.45
2018-04-26T20:13:42.609Z,101332.47
2018-04-26T20:16:10.825Z,101327.01
2018-04-26T20:18:39.100Z,101322.73
2018-04-26T20:21:08.838Z,101330.08
2018-04-26T20:23:38.206Z,101325.36
2018-04-26T20:26:06.412Z,101327.62
2018-04-26T20:28:34.642Z,101322.55
2018-04-26T20:31:03.359Z,101324.14
2018-04-26T20:33:31.580Z,101323.11
2018-04-26T20:35:59.796Z,101324.49
2018-04-26T20:38:28.540Z,101320.80
2018-04-26T20:40:56.781Z,101319.75
2018-04-26T20:43:24.988Z,101319.11
2018-04-26T20:45:53.796Z,101318.76
2018-04-26T20:48:33.896Z,101318.02
2018-04-26T20:51:02.132Z,101321.59
2018-04-26T20:53:30.356Z,101315.98
2018-04-26T20:55:58.950Z,101321.87
2018-04-26T20:58:27.160Z,101323.39
2018-04-26T21:00:55.421Z,101312.56
2018-04-26T21:03:24.169Z,101316.15
2018-04-26T21:05:52.468Z,101316.84
2018-04-26T21:08:20.788Z,101311.95
2018-04-26T21:10:49.387Z,101316.48
2018-04-26T21:13:17.657Z,101313.07
2018-04-26T21:15:45.909Z,101312.84
2018-04-26T21:18:14.512Z,101309.94
2018-04-26T21:20:42.830Z,101312.64
2018-04-26T21:23:11.174Z,101309.70
2018-04-26T21:25:39.794Z,101316.11
2018-04-26T21:28:08.072Z,101315.73
2018-04-26T21:30:36.346Z,101313.59
2018-04-26T21:33:04.893Z,101310.59
2018-04-26T21:35:33.253Z,101313.98
2018-04-26T21:38:01.486Z,101313.24
2018-04-26T21:40:30.148Z,101315.08
2018-04-26T21:42:58.444Z,101318.72
2018-04-26T21:45:26.706Z,101317.57
2018-04-26T21:47:55.281Z,101315.83
2018-04-26T21:50:29.285Z,101315.06
2018-04-26T21:53:03.136Z,101319.40
2018-04-26T21:55:37.027Z,101318.16
2018-04-26T21:58:11.072Z,101319.07
2018-04-26T22:00:44.896Z,101315.80
2018-04-26T22:03:13.198Z,101317.64
2018-04-26T22:05:41.853Z,101317.31
2018-04-26T22:08:10.426Z,101318.37
2018-04-26T22:10:38.702Z,101310.52
2018-04-26T22:13:06.968Z,101312.83
2018-04-26T22:15:35.630Z,101314.27
2018-04-26T22:18:03.915Z,101313.52
2018-04-26T22:20:32.206Z,101311.49
2018-04-26T22:23:00.812Z,101314.13
2018-04-26T22:25:29.133Z,101303.74
2018-04-26T22:27:57.400Z,101310.86
2018-04-26T22:30:25.995Z,101307.00
2018-04-26T22:32:54.278Z,101308.32
2018-04-26T22:35:22.557Z,101315.05
2018-04-26T22:37:51.273Z,101317.03
2018-04-26T22:40:19.630Z,101319.66
2018-04-26T22:42:47.918Z,101313.58
2018-04-26T22:45:16.763Z,101312.42
2018-04-26T22:47:45.062Z,101309.73
2018-04-26T22:50:13.348Z,101309.45
2018-04-26T22:52:42.038Z,101313.84
2018-04-26T22:55:10.372Z,101314.84
2018-04-26T22:57:38.674Z,101311.30
2018-04-26T23:00:07.560Z,101310.95
2018-04-26T23:02:36.273Z,101313.59
2018-04-26T23:05:04.583Z,101315.02
2018-04-26T23:07:32.941Z,101315.63
2018-04-26T23:10:02.440Z,101319.16
2018-04-26T23:12:30.746Z,101323.66
2018-04-26T23:14:59.097Z,101312.29
2018-04-26T23:17:27.957Z,101313.17
2018-04-26T23:19:56.715Z,101319.38
2018-04-26T23:22:24.988Z,101307.94
2018-04-26T23:24:53.297Z,101308.88
2018-04-26T23:27:21.867Z,101302.34
2018-04-26T23:29:50.197Z,101304.16
2018-04-26T23:32:18.985Z,101304.16
2018-04-26T23:34:47.669Z,101307.84
2018-04-26T23:37:16.015Z,101303.61
2018-04-26T23:39:44.264Z,101310.48
2018-04-26T23:42:13.026Z,101301.77
2018-04-26T23:44:41.319Z,101309.17
2018-04-26T23:47:09.628Z,101304.00
2018-04-26T23:49:38.489Z,101303.67
2018-04-26T23:52:06.823Z,101299.83
2018-04-26T23:54:35.105Z,101293.13
2018-04-26T23:57:03.706Z,101296.70
2018-04-26T23:59:32.001Z,101290.66
